createdAt,value
2023-01-17T00:02:31.156Z,12.68
2023-01-17T00:05:18.984Z,6.90
2023-01-17T00:08:05.116Z,11.85
2023-01-17T00:10:34.367Z,11.82
2023-01-17T00:13:04.446Z,10.43
2023-01-17T00:15:33.576Z,9.38
2023-01-17T00:18:02.542Z,9.70
2023-01-17T00:20:50.763Z,13.00
2023-01-17T00:23:38.546Z,12.13
2023-01-17T00:26:10.919Z,11.98
2023-01-17T00:28:41.424Z,7.78
2023-01-17T00:31:11.204Z,12.35
2023-01-17T00:33:39.090Z,13.43
2023-01-17T00:36:09.131Z,12.23
2023-01-17T00:38:38.614Z,9.45
2023-01-17T00:41:08.335Z,7.53
2023-01-17T00:43:54.987Z,6.68
2023-01-17T00:46:41.618Z,10.77
2023-01-17T00:49:28.326Z,7.82
2023-01-17T00:52:16.290Z,8.13
2023-01-17T00:55:02.467Z,8.68
2023-01-17T00:57:48.993Z,9.25
2023-01-17T01:00:36.580Z,5.93
2023-01-17T01:03:27.994Z,6.22
2023-01-17T01:09:01.353Z,6.38
2023-01-17T01:11:47.589Z,8.52
2023-01-17T01:14:34.259Z,8.50
2023-01-17T01:17:20.842Z,8.73
2023-01-17T01:20:07.339Z,8.45
2023-01-17T01:22:53.751Z,7.05
2023-01-17T01:25:41.646Z,9.70
2023-01-17T01:28:30.791Z,6.93
2023-01-17T01:31:18.909Z,7.22
2023-01-17T01:33:48.056Z,4.85
2023-01-17T01:36:17.195Z,6.55
2023-01-17T01:38:46.980Z,7.18
2023-01-17T01:41:17.429Z,7.43
2023-01-17T01:43:48.708Z,6.60
2023-01-17T01:46:22.642Z,11.45
2023-01-17T01:48:55.195Z,11.10
2023-01-17T01:51:28.704Z,7.57
2023-01-17T01:54:04.519Z,9.95
2023-01-17T01:56:35.256Z,9.27
2023-01-17T01:59:08.253Z,11.95
2023-01-17T02:01:37.778Z,9.30
2023-01-17T02:04:10.004Z,13.35
2023-01-17T02:06:40.939Z,8.63
2023-01-17T02:09:12.768Z,13.55
2023-01-17T02:11:43.686Z,8.80
2023-01-17T02:14:17.152Z,11.18
2023-01-17T02:17:07.277Z,10.18
2023-01-17T02:20:05.440Z,13.80
2023-01-17T02:23:11.138Z,11.68
2023-01-17T02:26:15.574Z,13.82
2023-01-17T02:29:06.932Z,12.80
2023-01-17T02:31:47.099Z,9.13
2023-01-17T02:34:24.232Z,9.80
2023-01-17T02:37:01.957Z,8.68
2023-01-17T02:39:38.364Z,13.15
2023-01-17T02:42:12.126Z,9.02
2023-01-17T02:44:42.494Z,8.27
2023-01-17T02:47:25.331Z,12.35
2023-01-17T02:49:57.209Z,11.40
2023-01-17T02:52:52.532Z,13.60
2023-01-17T02:55:33.956Z,11.35
2023-01-17T02:58:21.504Z,14.50
2023-01-17T03:01:03.364Z,15.10
2023-01-17T03:03:41.055Z,10.60
2023-01-17T03:06:13.677Z,9.95
2023-01-17T03:08:45.328Z,10.98
2023-01-17T03:11:15.577Z,10.75
2023-01-17T03:13:45.714Z,12.55
2023-01-17T03:16:18.994Z,14.05
2023-01-17T03:18:49.465Z,13.60
2023-01-17T03:21:18.537Z,14.27
2023-01-17T03:23:47.679Z,11.73
2023-01-17T03:26:16.724Z,13.95
2023-01-17T03:28:45.848Z,13.77
2023-01-17T03:31:15.788Z,13.02
2023-01-17T03:33:45.127Z,13.38
2023-01-17T03:36:15.659Z,17.25
2023-01-17T03:38:44.659Z,12.80
2023-01-17T03:41:13.654Z,15.52
2023-01-17T03:43:42.632Z,11.68
2023-01-17T03:46:23.208Z,14.27
2023-01-17T03:48:52.537Z,8.57
2023-01-17T03:51:22.960Z,13.77
2023-01-17T03:53:52.124Z,8.63
2023-01-17T03:56:21.115Z,8.40
2023-01-17T03:58:50.055Z,10.23
2023-01-17T04:01:19.161Z,11.68
2023-01-17T04:03:48.165Z,6.68
2023-01-17T04:06:17.270Z,8.30
2023-01-17T04:08:47.605Z,9.20
2023-01-17T04:11:16.585Z,10.15
2023-01-17T04:13:45.590Z,10.80
2023-01-17T04:16:17.560Z,8.80
2023-01-17T04:18:46.638Z,12.52
2023-01-17T04:21:15.554Z,6.63
2023-01-17T04:23:44.528Z,8.57
2023-01-17T04:26:15.234Z,8.85
2023-01-17T04:28:44.242Z,5.55
2023-01-17T04:31:16.869Z,9.75
2023-01-17T04:33:45.915Z,5.88
2023-01-17T04:36:14.887Z,5.90
2023-01-17T04:38:43.842Z,6.47
2023-01-17T04:41:14.256Z,6.43
2023-01-17T04:43:43.197Z,8.27
2023-01-17T04:46:12.555Z,7.03
2023-01-17T04:48:41.642Z,8.02
2023-01-17T04:51:10.634Z,7.28
2023-01-17T04:53:39.603Z,7.07
2023-01-17T04:56:09.066Z,6.55
2023-01-17T04:58:39.404Z,5.18
2023-01-17T05:01:09.993Z,5.35
2023-01-17T05:03:39.005Z,6.53
2023-01-17T05:06:08.044Z,5.57
2023-01-17T05:08:37.181Z,6.55
2023-01-17T05:11:06.324Z,4.10
2023-01-17T05:13:35.324Z,5.97
2023-01-17T05:16:06.209Z,10.82
2023-01-17T05:18:35.254Z,7.15
2023-01-17T05:21:05.047Z,8.20
2023-01-17T05:23:34.129Z,5.80
2023-01-17T05:26:03.133Z,4.85
2023-01-17T05:28:32.066Z,6.70
2023-01-17T05:31:01.085Z,10.30
2023-01-17T05:33:31.440Z,7.15
2023-01-17T05:36:00.474Z,6.35
2023-01-17T05:38:29.457Z,9.45
2023-01-17T05:41:00.939Z,8.93
2023-01-17T05:43:30.126Z,9.15
2023-01-17T05:45:59.202Z,9.07
2023-01-17T05:48:28.183Z,8.85
2023-01-17T05:50:58.554Z,9.23
2023-01-17T05:53:27.558Z,3.00
2023-01-17T05:55:56.539Z,10.52
2023-01-17T05:58:25.500Z,6.65
2023-01-17T06:00:56.428Z,9.77
2023-01-17T06:05:58.411Z,5.57
2023-01-17T06:08:27.470Z,7.50
2023-01-17T06:10:59.926Z,7.18
2023-01-17T06:13:28.986Z,10.38
2023-01-17T06:16:04.137Z,8.73
2023-01-17T06:18:33.227Z,8.23
2023-01-17T06:21:03.616Z,4.50
2023-01-17T06:23:32.595Z,8.18
2023-01-17T06:26:04.560Z,6.30
2023-01-17T06:28:33.533Z,10.23
2023-01-17T06:31:07.454Z,7.47
2023-01-17T06:33:36.627Z,11.52
2023-01-17T06:36:07.635Z,8.48
2023-01-17T06:38:36.607Z,7.47
2023-01-17T06:41:06.553Z,4.82
2023-01-17T06:43:35.511Z,7.65
2023-01-17T06:46:04.505Z,7.45
2023-01-17T06:48:33.489Z,6.97
2023-01-17T06:51:02.472Z,13.48
2023-01-17T06:53:32.816Z,8.43
2023-01-17T06:56:01.807Z,10.38
2023-01-17T06:58:30.752Z,6.80
2023-01-17T07:00:59.820Z,7.72
2023-01-17T07:03:28.900Z,8.98
2023-01-17T07:05:57.846Z,5.00
2023-01-17T07:08:26.795Z,5.63
2023-01-17T07:11:00.515Z,8.10
2023-01-17T07:13:30.675Z,7.00
2023-01-17T07:16:02.188Z,8.05
2023-01-17T07:18:31.474Z,7.88
2023-01-17T07:21:00.636Z,4.68
2023-01-17T07:23:29.665Z,6.32
2023-01-17T07:26:01.175Z,5.22
2023-01-17T07:28:30.225Z,11.73
2023-01-17T07:30:59.264Z,9.60
2023-01-17T07:33:28.242Z,6.25
2023-01-17T07:35:57.239Z,5.18
2023-01-17T07:38:26.222Z,9.25
2023-01-17T07:41:00.919Z,8.48
2023-01-17T07:43:29.883Z,6.70
2023-01-17T07:46:01.271Z,8.10
2023-01-17T07:48:32.140Z,9.35
2023-01-17T07:51:01.321Z,6.23
2023-01-17T07:53:31.487Z,11.07
2023-01-17T07:56:04.400Z,9.23
2023-01-17T07:58:37.016Z,8.68
2023-01-17T08:01:07.932Z,6.57
2023-01-17T08:03:40.090Z,6.63
2023-01-17T08:06:18.523Z,10.55
2023-01-17T08:08:47.636Z,6.65
2023-01-17T08:11:18.041Z,9.27
2023-01-17T08:13:47.063Z,7.22
2023-01-17T08:16:16.146Z,9.00
2023-01-17T08:18:45.124Z,6.20
2023-01-17T08:21:15.471Z,5.00
2023-01-17T08:23:44.451Z,12.38
2023-01-17T08:26:21.278Z,6.00
2023-01-17T08:28:57.339Z,6.60
2023-01-17T08:31:26.428Z,8.10
2023-01-17T08:33:55.452Z,7.60
2023-01-17T08:36:25.837Z,10.65
2023-01-17T08:38:55.573Z,10.55
2023-01-17T08:41:27.511Z,8.30
2023-01-17T08:43:57.872Z,5.68
2023-01-17T08:46:27.015Z,5.53
2023-01-17T08:48:58.809Z,9.55
2023-01-17T08:51:28.902Z,8.27
2023-01-17T08:53:58.232Z,11.60
2023-01-17T08:56:28.041Z,9.32
2023-01-17T08:58:58.468Z,11.77
2023-01-17T09:01:27.647Z,11.63
2023-01-17T09:03:56.769Z,14.95
2023-01-17T09:06:25.789Z,13.13
2023-01-17T09:08:54.915Z,11.20
2023-01-17T09:11:24.081Z,10.88
2023-01-17T09:13:53.199Z,7.13
2023-01-17T09:16:23.644Z,10.02
2023-01-17T09:18:55.359Z,10.50
2023-01-17T09:21:24.814Z,5.65
2023-01-17T09:23:54.240Z,9.77
2023-01-17T09:26:25.173Z,8.38
2023-01-17T09:28:54.604Z,9.23
2023-01-17T09:31:27.074Z,7.32
2023-01-17T09:33:57.700Z,6.93
2023-01-17T09:36:29.298Z,8.10
2023-01-17T09:38:58.991Z,7.68
2023-01-17T09:41:32.037Z,5.57
2023-01-17T09:44:06.191Z,8.38
2023-01-17T09:46:41.256Z,12.07
2023-01-17T09:49:14.128Z,7.93
2023-01-17T09:51:43.585Z,10.10
2023-01-17T09:54:22.859Z,11.13
2023-01-17T09:57:00.707Z,12.88
2023-01-17T09:59:37.620Z,7.85
2023-01-17T10:02:26.924Z,5.38
2023-01-17T10:05:17.964Z,7.63
2023-01-17T10:07:59.032Z,18.95
2023-01-17T10:10:34.582Z,11.40
2023-01-17T10:13:14.145Z,10.40
2023-01-17T10:16:17.433Z,15.40
2023-01-17T10:19:12.900Z,8.40
2023-01-17T10:22:05.042Z,9.55
2023-01-17T10:25:16.006Z,8.25
2023-01-17T10:27:52.745Z,7.75
2023-01-17T10:30:26.251Z,6.97
2023-01-17T10:32:58.034Z,6.78
2023-01-17T10:35:32.670Z,8.07
2023-01-17T10:38:11.266Z,7.38
2023-01-17T10:40:43.906Z,6.32
2023-01-17T10:43:21.307Z,9.90
2023-01-17T10:45:54.463Z,9.88
2023-01-17T10:48:35.784Z,8.93
2023-01-17T10:53:52.019Z,5.13
2023-01-17T10:56:27.119Z,7.90
2023-01-17T10:59:09.797Z,8.55
2023-01-17T11:01:40.377Z,6.15
2023-01-17T11:04:17.765Z,14.30
2023-01-17T11:06:57.872Z,15.65
2023-01-17T11:09:39.444Z,13.98
2023-01-17T11:12:21.968Z,9.15
2023-01-17T11:15:03.706Z,6.15
2023-01-17T11:17:34.035Z,8.18
2023-01-17T11:20:20.200Z,5.90
2023-01-17T11:23:04.150Z,10.07
2023-01-17T11:25:35.193Z,7.47
2023-01-17T11:28:06.977Z,7.28
2023-01-17T11:30:36.048Z,9.82
2023-01-17T11:33:08.944Z,7.85
2023-01-17T11:35:42.592Z,9.88
2023-01-17T11:38:20.273Z,13.32
2023-01-17T11:40:50.850Z,6.90
2023-01-17T11:43:23.383Z,8.50
2023-01-17T11:46:05.324Z,7.28
2023-01-17T11:48:37.341Z,8.43
2023-01-17T11:51:18.997Z,6.25
2023-01-17T11:53:50.036Z,8.65
2023-01-17T11:56:23.527Z,6.53
2023-01-17T11:58:52.722Z,11.68
2023-01-17T12:01:35.001Z,9.40
2023-01-17T12:04:24.856Z,8.50
2023-01-17T12:07:15.144Z,10.25
2023-01-17T12:09:53.395Z,8.55
2023-01-17T12:12:52.006Z,10.80
2023-01-17T12:15:37.475Z,6.38
2023-01-17T12:18:30.323Z,8.88
2023-01-17T12:21:13.683Z,9.18
2023-01-17T12:23:54.962Z,14.07
2023-01-17T12:29:43.325Z,9.38
2023-01-17T12:32:30.265Z,7.90
2023-01-17T12:35:05.822Z,7.47
2023-01-17T12:37:39.327Z,8.27
2023-01-17T12:40:21.050Z,10.55
2023-01-17T12:42:55.864Z,7.35
2023-01-17T12:45:32.121Z,7.40
2023-01-17T12:48:06.871Z,6.90
2023-01-17T12:50:40.172Z,7.72
2023-01-17T12:53:19.830Z,8.05
2023-01-17T12:55:58.128Z,7.32
2023-01-17T12:58:36.880Z,8.30
2023-01-17T13:01:09.842Z,8.63
2023-01-17T13:03:48.095Z,10.38
2023-01-17T13:06:25.088Z,9.57
2023-01-17T13:08:57.937Z,12.55
2023-01-17T13:11:33.616Z,10.43
2023-01-17T13:14:07.080Z,9.38
2023-01-17T13:16:44.084Z,8.70
2023-01-17T13:19:21.612Z,9.50
2023-01-17T13:21:51.852Z,6.15
2023-01-17T13:24:31.800Z,10.40
2023-01-17T13:27:30.434Z,12.43
2023-01-17T13:30:32.559Z,10.45
2023-01-17T13:33:32.085Z,11.43
2023-01-17T13:36:13.754Z,8.70
2023-01-17T13:39:02.124Z,7.88
2023-01-17T13:41:42.450Z,12.02
2023-01-17T13:44:25.584Z,8.23
2023-01-17T13:47:01.933Z,7.63
2023-01-17T13:49:45.830Z,8.18
2023-01-17T13:52:33.534Z,7.40
2023-01-17T13:55:04.769Z,8.18
2023-01-17T13:57:43.785Z,9.65
2023-01-17T14:00:50.564Z,8.85
2023-01-17T14:03:53.072Z,11.18
2023-01-17T14:06:37.412Z,9.55
2023-01-17T14:09:16.509Z,9.98
2023-01-17T14:11:56.224Z,12.13
2023-01-17T14:14:57.087Z,7.15
2023-01-17T14:17:57.277Z,7.57
2023-01-17T14:20:51.212Z,7.82
2023-01-17T14:23:57.353Z,9.13
2023-01-17T14:26:54.018Z,9.60
2023-01-17T14:29:52.242Z,8.85
2023-01-17T14:32:24.482Z,10.90
2023-01-17T14:34:54.446Z,9.70
2023-01-17T14:37:37.004Z,9.23
2023-01-17T14:40:20.831Z,8.38
2023-01-17T14:42:59.368Z,9.20
2023-01-17T14:45:30.725Z,10.50
2023-01-17T14:48:01.177Z,8.57
2023-01-17T14:50:36.227Z,10.70
2023-01-17T14:53:19.957Z,13.23
2023-01-17T14:55:56.609Z,9.80
2023-01-17T14:58:27.863Z,9.65
2023-01-17T15:03:27.941Z,10.27
2023-01-17T15:05:58.848Z,10.55
2023-01-17T15:08:35.329Z,8.57
2023-01-17T15:11:08.978Z,7.53
2023-01-17T15:13:44.871Z,10.02
2023-01-17T15:16:23.019Z,8.82
2023-01-17T15:18:52.384Z,9.05
2023-01-17T15:21:23.831Z,7.55
2023-01-17T15:23:55.572Z,7.18
2023-01-17T15:26:29.087Z,7.40
2023-01-17T15:29:05.312Z,5.07
2023-01-17T15:31:43.123Z,6.75
2023-01-17T15:34:23.582Z,8.65
2023-01-17T15:36:53.035Z,6.18
2023-01-17T15:39:24.692Z,10.32
2023-01-17T15:41:57.418Z,5.95
2023-01-17T15:44:42.619Z,9.40
2023-01-17T15:47:34.091Z,9.05
2023-01-17T15:50:30.326Z,4.68
2023-01-17T15:53:01.595Z,6.82
2023-01-17T15:58:03.594Z,7.53
2023-01-17T16:00:38.411Z,8.35
2023-01-17T16:03:23.673Z,5.00
2023-01-17T16:05:54.279Z,19.80
2023-01-17T16:08:38.583Z,77.88
2023-01-17T16:11:09.683Z,27.33
2023-01-17T16:13:42.331Z,74.35
2023-01-17T16:16:13.723Z,95.15
2023-01-17T16:18:44.025Z,65.93
2023-01-17T16:21:19.914Z,36.57
2023-01-17T16:23:49.291Z,61.80
2023-01-17T16:26:19.061Z,27.70
2023-01-17T16:28:50.295Z,35.85
2023-01-17T16:31:19.935Z,62.55
2023-01-17T16:33:51.035Z,10.75
2023-01-17T16:38:52.225Z,15.40
2023-01-17T16:41:21.883Z,8.55
2023-01-17T16:44:01.578Z,36.35
2023-01-17T16:46:31.236Z,28.63
2023-01-17T16:49:02.237Z,42.47
2023-01-17T16:51:32.083Z,33.90
2023-01-17T16:54:02.268Z,23.75
2023-01-17T16:56:31.548Z,32.80
2023-01-17T16:59:03.104Z,17.52
2023-01-17T17:01:32.377Z,11.23
2023-01-17T17:04:01.423Z,7.53
2023-01-17T17:06:32.047Z,5.75
2023-01-17T17:09:01.317Z,20.70
2023-01-17T17:11:30.458Z,22.25
2023-01-17T17:13:59.546Z,28.17
2023-01-17T17:16:31.393Z,19.13
2023-01-17T17:19:06.259Z,12.68
2023-01-17T17:21:37.529Z,13.95
2023-01-17T17:24:07.133Z,8.90
2023-01-17T17:26:37.748Z,7.57
2023-01-17T17:29:10.486Z,6.15
2023-01-17T17:31:42.583Z,5.65
2023-01-17T17:34:16.294Z,8.32
2023-01-17T17:36:45.729Z,9.20
2023-01-17T17:39:15.876Z,12.60
2023-01-17T17:41:45.948Z,12.07
2023-01-17T17:44:15.181Z,6.45
2023-01-17T17:46:49.211Z,7.53
2023-01-17T17:49:18.201Z,11.15
2023-01-17T17:51:48.065Z,9.18
2023-01-17T17:54:18.477Z,5.63
2023-01-17T17:56:48.361Z,7.30
2023-01-17T17:59:50.709Z,7.50
2023-01-17T18:02:21.152Z,10.15
2023-01-17T18:04:50.393Z,21.80
2023-01-17T18:07:20.006Z,16.48
2023-01-17T18:09:53.151Z,40.50
2023-01-17T18:12:24.495Z,7.43
2023-01-17T18:14:54.549Z,9.63
2023-01-17T18:17:24.980Z,8.57
2023-01-17T18:19:54.053Z,6.88
2023-01-17T18:22:23.027Z,5.20
2023-01-17T18:24:52.030Z,8.93
2023-01-17T18:27:20.993Z,7.68
2023-01-17T18:29:50.912Z,10.65
2023-01-17T18:32:27.661Z,9.45
2023-01-17T18:35:09.799Z,7.05
2023-01-17T18:37:38.843Z,7.32
2023-01-17T18:40:08.625Z,7.40
2023-01-17T18:42:37.689Z,8.27
2023-01-17T18:45:08.202Z,6.22
2023-01-17T18:47:38.789Z,7.63
2023-01-17T18:50:10.633Z,7.13
2023-01-17T18:52:39.821Z,7.32
2023-01-17T18:55:10.560Z,7.25
2023-01-17T18:57:41.886Z,14.05
2023-01-17T19:00:13.758Z,12.25
2023-01-17T19:02:42.849Z,11.10
2023-01-17T19:05:14.840Z,15.10
2023-01-17T19:07:43.913Z,13.05
2023-01-17T19:10:13.037Z,9.23
2023-01-17T19:12:42.014Z,6.88
2023-01-17T19:15:12.484Z,8.23
2023-01-17T19:17:41.453Z,10.10
2023-01-17T19:20:13.694Z,9.10
2023-01-17T19:22:44.892Z,7.35
2023-01-17T19:25:14.528Z,9.82
2023-01-17T19:27:43.865Z,8.23
2023-01-17T19:30:14.024Z,10.15
2023-01-17T19:32:43.017Z,7.47
2023-01-17T19:35:13.917Z,9.65
2023-01-17T19:37:46.614Z,7.82
2023-01-17T19:40:17.163Z,10.25
2023-01-17T19:42:46.832Z,8.18
2023-01-17T19:45:16.194Z,8.02
2023-01-17T19:47:48.140Z,9.60
2023-01-17T19:50:18.952Z,10.25
2023-01-17T19:52:48.174Z,10.57
2023-01-17T19:55:17.769Z,9.57
2023-01-17T19:57:46.713Z,8.10
2023-01-17T20:00:18.683Z,9.52
2023-01-17T20:02:47.768Z,7.80
2023-01-17T20:05:19.670Z,10.65
2023-01-17T20:07:53.323Z,13.65
2023-01-17T20:10:22.359Z,9.10
2023-01-17T20:12:51.553Z,10.88
2023-01-17T20:15:20.646Z,11.07
2023-01-17T20:17:49.767Z,11.48
2023-01-17T20:20:22.837Z,11.70
2023-01-17T20:22:51.894Z,12.52
2023-01-17T20:25:24.403Z,14.48
2023-01-17T20:27:54.984Z,9.77
2023-01-17T20:30:30.044Z,7.90
2023-01-17T20:32:59.242Z,9.43
2023-01-17T20:35:29.906Z,11.63
2023-01-17T20:37:59.222Z,8.00
2023-01-17T20:40:32.295Z,10.40
2023-01-17T20:43:01.932Z,7.82
2023-01-17T20:45:34.008Z,5.78
2023-01-17T20:48:07.616Z,10.82
2023-01-17T20:50:38.268Z,9.07
2023-01-17T20:53:14.937Z,8.63
2023-01-17T20:55:48.765Z,6.05
2023-01-17T20:58:17.876Z,5.65
2023-01-17T21:00:52.354Z,6.28
2023-01-17T21:03:21.526Z,5.10
2023-01-17T21:05:51.914Z,5.57
2023-01-17T21:08:22.044Z,7.43
2023-01-17T21:10:51.143Z,6.20
2023-01-17T21:13:20.650Z,6.40
2023-01-17T21:15:50.927Z,5.93
2023-01-17T21:18:21.074Z,4.90
2023-01-17T21:20:52.002Z,4.97
2023-01-17T21:23:20.997Z,7.55
2023-01-17T21:25:59.381Z,5.82
2023-01-17T21:28:30.465Z,7.03
2023-01-17T21:33:29.447Z,11.27
2023-01-17T21:36:07.924Z,6.13
2023-01-17T21:38:36.985Z,8.00
2023-01-17T21:41:06.507Z,8.23
2023-01-17T21:43:37.744Z,5.43
2023-01-17T21:46:07.137Z,7.95
2023-01-17T21:48:36.107Z,8.73
2023-01-17T21:51:08.210Z,6.80
2023-01-17T21:53:38.027Z,6.35
2023-01-17T21:56:26.576Z,8.60
2023-01-17T21:58:56.922Z,6.78
2023-01-17T22:01:28.150Z,5.15
2023-01-17T22:03:58.527Z,5.10
2023-01-17T22:06:31.029Z,4.72
2023-01-17T22:09:00.468Z,5.53
2023-01-17T22:11:30.535Z,6.32
2023-01-17T22:13:59.941Z,9.10
2023-01-17T22:16:29.070Z,9.15
2023-01-17T22:18:58.043Z,9.55
2023-01-17T22:21:29.600Z,8.45
2023-01-17T22:24:01.146Z,11.27
2023-01-17T22:26:31.739Z,9.45
2023-01-17T22:29:02.384Z,10.02
2023-01-17T22:31:32.194Z,12.45
2023-01-17T22:34:02.843Z,16.05
2023-01-17T22:36:34.627Z,10.63
2023-01-17T22:39:03.867Z,10.23
2023-01-17T22:41:35.178Z,10.52
2023-01-17T22:44:05.548Z,12.95
2023-01-17T22:46:37.204Z,10.77
2023-01-17T22:49:08.506Z,11.30
2023-01-17T22:51:39.718Z,11.63
2023-01-17T22:56:37.426Z,14.32
2023-01-17T22:59:11.387Z,10.93
2023-01-17T23:01:41.657Z,15.93
2023-01-17T23:04:14.249Z,12.88
2023-01-17T23:06:44.777Z,14.35
2023-01-17T23:09:15.805Z,12.30
2023-01-17T23:11:47.169Z,12.02
2023-01-17T23:14:19.161Z,9.27
2023-01-17T23:17:07.439Z,9.07
2023-01-17T23:19:38.196Z,10.50
2023-01-17T23:22:17.375Z,11.10
2023-01-17T23:24:51.869Z,7.93
2023-01-17T23:27:40.975Z,10.70
2023-01-17T23:30:16.158Z,7.88
2023-01-17T23:32:47.301Z,7.07
2023-01-17T23:38:04.229Z,6.80
2023-01-17T23:40:35.184Z,5.45
2023-01-17T23:43:21.870Z,4.97
2023-01-17T23:45:51.832Z,3.45
2023-01-17T23:48:21.634Z,5.90
2023-01-17T23:50:50.875Z,6.88
2023-01-17T23:53:23.243Z,6.50
2023-01-17T23:55:54.006Z,4.72
2023-01-17T23:58:24.725Z,6.82
